createdAt,value
2017-10-22T00:00:50.307Z,11.90
2017-10-22T00:03:18.603Z,11.90
2017-10-22T00:05:46.134Z,11.80
2017-10-22T00:08:14.434Z,11.80
2017-10-22T00:10:42.031Z,11.80
2017-10-22T00:13:09.554Z,11.80
2017-10-22T00:15:37.112Z,11.80
2017-10-22T00:18:04.635Z,11.80
2017-10-22T00:20:32.231Z,11.80
2017-10-22T00:22:59.744Z,11.70
2017-10-22T00:25:27.350Z,11.70
2017-10-22T00:27:55.634Z,11.50
2017-10-22T00:30:23.143Z,11.50
2017-10-22T00:32:50.764Z,11.60
2017-10-22T00:35:18.339Z,11.50
2017-10-22T00:37:45.864Z,11.40
2017-10-22T00:40:14.174Z,11.20
2017-10-22T00:42:41.741Z,11.20
2017-10-22T00:45:09.271Z,11.30
2017-10-22T00:47:36.796Z,11.40
2017-10-22T00:50:05.075Z,11.60
2017-10-22T00:52:32.701Z,11.60
2017-10-22T00:55:00.224Z,11.60
2017-10-22T00:57:28.495Z,11.40
2017-10-22T00:59:56.779Z,11.50
2017-10-22T01:02:25.082Z,11.30
2017-10-22T01:04:52.596Z,11.30
2017-10-22T01:07:20.887Z,11.30
2017-10-22T01:09:49.159Z,11.20
2017-10-22T01:12:17.434Z,11.30
2017-10-22T01:14:45.744Z,11.30
2017-10-22T01:17:13.271Z,11.30
2017-10-22T01:19:40.866Z,11.20
2017-10-22T01:22:08.392Z,11.30
2017-10-22T01:24:36.699Z,11.10
2017-10-22T01:27:04.235Z,11.10
2017-10-22T01:29:32.528Z,11.20
2017-10-22T01:32:00.064Z,11.10
2017-10-22T01:34:27.600Z,11.20
2017-10-22T01:36:55.252Z,11.10
2017-10-22T01:39:22.801Z,11.00
2017-10-22T01:41:50.333Z,11.00
2017-10-22T01:44:18.499Z,11.00
2017-10-22T01:46:46.787Z,10.90
2017-10-22T01:49:14.321Z,10.90
2017-10-22T01:51:42.618Z,10.80
2017-10-22T01:54:10.932Z,10.90
2017-10-22T01:56:38.514Z,10.80
2017-10-22T01:59:06.840Z,10.70
2017-10-22T02:01:35.114Z,10.70
2017-10-22T02:04:03.400Z,10.80
2017-10-22T02:06:30.922Z,10.80
2017-10-22T02:08:58.438Z,10.70
2017-10-22T02:11:25.963Z,10.70
2017-10-22T02:13:54.259Z,10.60
2017-10-22T02:16:21.825Z,10.50
2017-10-22T02:18:49.392Z,10.60
2017-10-22T02:21:16.930Z,10.50
2017-10-22T02:23:45.207Z,10.50
2017-10-22T02:26:12.796Z,10.50
2017-10-22T02:28:40.355Z,10.50
2017-10-22T02:31:07.902Z,10.50
2017-10-22T02:33:35.481Z,10.60
2017-10-22T02:36:03.015Z,10.50
2017-10-22T02:38:30.537Z,10.50
2017-10-22T02:40:58.140Z,10.50
2017-10-22T02:43:25.714Z,10.40
2017-10-22T02:45:53.256Z,10.40
2017-10-22T02:48:20.794Z,10.30
2017-10-22T02:50:48.420Z,10.40
2017-10-22T02:53:15.931Z,10.40
2017-10-22T02:55:44.231Z,10.40
2017-10-22T02:58:11.787Z,10.40
2017-10-22T03:00:39.307Z,10.40
2017-10-22T03:03:06.840Z,10.20
2017-10-22T03:05:34.352Z,10.20
2017-10-22T03:08:01.956Z,10.30
2017-10-22T03:10:29.467Z,10.40
2017-10-22T03:12:57.031Z,10.40
2017-10-22T03:15:25.313Z,10.40
2017-10-22T03:17:52.852Z,10.30
2017-10-22T03:20:21.156Z,10.40
2017-10-22T03:22:48.695Z,10.30
2017-10-22T03:25:16.983Z,10.20
2017-10-22T03:27:45.285Z,10.20
2017-10-22T03:30:12.837Z,10.20
2017-10-22T03:32:40.370Z,10.20
2017-10-22T03:35:07.875Z,10.10
2017-10-22T03:37:35.407Z,10.00
2017-10-22T03:40:02.930Z,9.90
2017-10-22T03:42:30.479Z,9.90
2017-10-22T03:44:58.100Z,9.90
2017-10-22T03:47:25.635Z,9.90
2017-10-22T03:49:53.913Z,9.80
2017-10-22T03:52:22.364Z,9.80
2017-10-22T03:54:49.889Z,9.80
2017-10-22T03:57:17.401Z,9.80
2017-10-22T03:59:44.996Z,9.80
2017-10-22T04:02:12.567Z,9.80
2017-10-22T04:04:40.097Z,9.70
2017-10-22T04:07:08.370Z,9.60
2017-10-22T04:09:36.654Z,9.60
2017-10-22T04:12:04.927Z,9.60
2017-10-22T04:14:33.238Z,9.60
2017-10-22T04:17:00.746Z,9.60
2017-10-22T04:19:28.279Z,9.50
2017-10-22T04:21:55.813Z,9.50
2017-10-22T04:24:23.371Z,9.50
2017-10-22T04:26:50.932Z,9.50
2017-10-22T04:29:18.443Z,9.30
2017-10-22T04:31:45.959Z,9.30
2017-10-22T04:34:13.516Z,9.20
2017-10-22T04:36:41.082Z,9.20
2017-10-22T04:39:08.630Z,9.10
2017-10-22T04:41:36.144Z,9.20
2017-10-22T04:44:03.656Z,9.30
2017-10-22T04:46:31.188Z,9.20
2017-10-22T04:48:59.509Z,9.20
2017-10-22T04:51:27.033Z,9.20
2017-10-22T04:53:54.622Z,9.20
2017-10-22T04:56:22.193Z,9.20
2017-10-22T04:58:49.703Z,9.30
2017-10-22T05:01:17.980Z,9.30
2017-10-22T05:03:46.259Z,9.30
2017-10-22T05:06:14.576Z,9.30
2017-10-22T05:08:42.093Z,9.30
2017-10-22T05:11:09.619Z,9.30
2017-10-22T05:13:37.152Z,9.30
2017-10-22T05:16:04.681Z,9.30
2017-10-22T05:18:32.956Z,9.30
2017-10-22T05:21:01.367Z,9.40
2017-10-22T05:23:28.935Z,9.30
2017-10-22T05:25:56.442Z,9.40
2017-10-22T05:28:23.938Z,9.40
2017-10-22T05:30:51.504Z,9.60
2017-10-22T05:33:19.023Z,9.60
2017-10-22T05:35:46.623Z,9.60
2017-10-22T05:38:14.179Z,9.60
2017-10-22T05:40:41.867Z,9.60
2017-10-22T05:43:09.375Z,9.60
2017-10-22T05:45:37.684Z,9.50
2017-10-22T05:48:05.196Z,9.50
2017-10-22T05:50:32.812Z,9.60
2017-10-22T05:53:00.350Z,9.60
2017-10-22T05:55:28.631Z,9.50
2017-10-22T05:57:56.903Z,9.50
2017-10-22T06:00:25.196Z,9.60
2017-10-22T06:02:52.783Z,9.60
2017-10-22T06:05:20.315Z,9.50
2017-10-22T06:07:47.894Z,9.50
2017-10-22T06:10:15.401Z,9.30
2017-10-22T06:12:42.943Z,9.40
2017-10-22T06:15:10.487Z,9.40
2017-10-22T06:17:41.819Z,9.50
2017-10-22T06:20:09.367Z,9.50
2017-10-22T06:22:36.893Z,9.50
2017-10-22T06:25:04.419Z,9.60
2017-10-22T06:27:31.925Z,9.60
2017-10-22T06:30:00.211Z,9.60
2017-10-22T06:32:28.507Z,9.60
2017-10-22T06:34:56.023Z,9.60
2017-10-22T06:37:23.527Z,9.70
2017-10-22T06:39:51.030Z,9.70
2017-10-22T06:42:18.659Z,9.70
2017-10-22T06:44:46.213Z,9.90
2017-10-22T06:47:13.740Z,10.00
2017-10-22T06:49:42.028Z,10.30
2017-10-22T06:52:09.617Z,10.30
2017-10-22T06:54:37.147Z,10.40
2017-10-22T06:57:05.439Z,10.40
2017-10-22T06:59:32.974Z,10.40
2017-10-22T07:02:01.276Z,10.50
2017-10-22T07:04:28.818Z,10.50
2017-10-22T07:06:57.123Z,10.50
2017-10-22T07:09:24.679Z,10.50
2017-10-22T07:11:52.203Z,10.60
2017-10-22T07:14:19.730Z,10.60
2017-10-22T07:16:47.262Z,10.60
2017-10-22T07:19:14.780Z,10.70
2017-10-22T07:21:42.396Z,10.70
2017-10-22T07:24:09.947Z,10.70
2017-10-22T07:26:37.478Z,10.80
2017-10-22T07:29:05.768Z,10.90
2017-10-22T07:31:34.070Z,11.10
2017-10-22T07:34:01.630Z,11.00
2017-10-22T07:36:29.187Z,11.10
2017-10-22T07:38:56.694Z,11.10
2017-10-22T07:41:24.218Z,11.10
2017-10-22T07:43:51.747Z,11.00
2017-10-22T07:46:19.300Z,11.00
2017-10-22T07:48:47.601Z,11.00
2017-10-22T07:51:15.476Z,11.00
2017-10-22T07:53:43.343Z,11.10
2017-10-22T07:56:11.374Z,11.10
2017-10-22T07:58:39.184Z,11.10
2017-10-22T08:01:07.155Z,11.20
2017-10-22T08:03:35.022Z,11.20
2017-10-22T08:06:02.895Z,11.30
2017-10-22T08:08:31.587Z,11.40
2017-10-22T08:11:00.110Z,11.50
2017-10-22T08:13:27.927Z,11.50
2017-10-22T08:15:55.900Z,11.60
2017-10-22T08:18:24.382Z,11.60
2017-10-22T08:20:52.147Z,11.50
2017-10-22T08:23:20.115Z,11.60
2017-10-22T08:25:47.981Z,11.60
2017-10-22T08:28:15.731Z,11.50
2017-10-22T08:30:43.512Z,11.40
2017-10-22T08:33:11.381Z,11.30
2017-10-22T08:35:39.257Z,11.40
2017-10-22T08:38:07.014Z,11.30
2017-10-22T08:40:35.599Z,11.20
2017-10-22T08:43:03.466Z,11.20
2017-10-22T08:45:31.333Z,11.20
2017-10-22T08:47:59.203Z,11.10
2017-10-22T08:50:26.967Z,11.10
2017-10-22T08:52:54.754Z,11.10
2017-10-22T08:55:22.481Z,11.00
2017-10-22T08:57:50.200Z,11.00
2017-10-22T09:00:18.234Z,11.00
2017-10-22T09:02:45.898Z,11.00
2017-10-22T09:05:13.757Z,11.00
2017-10-22T09:07:41.734Z,10.90
2017-10-22T09:10:09.605Z,10.90
2017-10-22T09:12:37.471Z,10.90
2017-10-22T09:15:05.220Z,10.90
2017-10-22T09:17:33.001Z,10.80
2017-10-22T09:20:00.971Z,10.80
2017-10-22T09:22:28.840Z,10.70
2017-10-22T09:24:56.810Z,10.80
2017-10-22T09:27:24.576Z,10.80
2017-10-22T09:29:52.274Z,10.70
2017-10-22T09:32:19.876Z,10.70
2017-10-22T09:34:47.666Z,10.60
2017-10-22T09:37:15.637Z,10.50
2017-10-22T09:39:43.408Z,10.50
2017-10-22T09:42:11.270Z,10.50
2017-10-22T09:44:39.958Z,10.10
2017-10-22T09:47:09.334Z,10.40
2017-10-22T09:49:37.946Z,10.40
2017-10-22T09:52:05.712Z,10.30
2017-10-22T09:54:33.462Z,10.20
2017-10-22T09:57:01.185Z,10.20
2017-10-22T09:59:29.010Z,10.20
2017-10-22T10:01:56.687Z,10.20
2017-10-22T10:04:24.538Z,10.20
2017-10-22T10:06:52.508Z,10.20
2017-10-22T10:09:20.379Z,10.40
2017-10-22T10:11:48.346Z,10.40
2017-10-22T10:14:16.113Z,10.30
2017-10-22T10:16:43.925Z,10.30
2017-10-22T10:19:11.749Z,10.30
2017-10-22T10:21:39.491Z,10.30
2017-10-22T10:24:07.259Z,10.40
2017-10-22T10:26:35.156Z,10.40
2017-10-22T10:29:02.899Z,10.40
2017-10-22T10:31:30.782Z,10.40
2017-10-22T10:33:58.582Z,10.40
2017-10-22T10:36:26.515Z,10.40
2017-10-22T10:38:54.380Z,10.40
2017-10-22T10:41:22.231Z,10.40
2017-10-22T10:43:50.015Z,10.40
2017-10-22T10:46:17.914Z,10.40
2017-10-22T10:48:45.647Z,10.40
2017-10-22T10:51:13.515Z,10.40
2017-10-22T10:53:42.202Z,10.50
2017-10-22T10:56:09.909Z,10.50
2017-10-22T10:58:37.937Z,10.50
2017-10-22T11:01:05.710Z,10.50
2017-10-22T11:03:33.472Z,10.60
2017-10-22T11:06:01.257Z,10.70
2017-10-22T11:08:28.978Z,10.60
2017-10-22T11:10:56.583Z,10.70
2017-10-22T11:13:24.306Z,10.70
2017-10-22T11:15:52.195Z,10.70
2017-10-22T11:18:20.071Z,10.70
2017-10-22T11:20:48.031Z,10.70
2017-10-22T11:23:15.909Z,10.70
2017-10-22T11:25:43.670Z,10.70
2017-10-22T11:28:12.254Z,10.80
2017-10-22T11:30:40.124Z,10.80
2017-10-22T11:33:08.093Z,10.80
2017-10-22T11:35:35.859Z,10.80
2017-10-22T11:38:03.622Z,10.80
2017-10-22T11:40:31.593Z,10.80
2017-10-22T11:42:59.457Z,10.90
2017-10-22T11:45:27.430Z,10.90
2017-10-22T11:47:55.180Z,10.90
2017-10-22T11:50:22.958Z,11.10
2017-10-22T11:52:50.749Z,11.10
2017-10-22T11:55:18.469Z,11.10
2017-10-22T11:57:46.974Z,11.10
2017-10-22T12:00:14.842Z,11.10
2017-10-22T12:02:42.536Z,11.10
2017-10-22T12:05:10.140Z,11.10
2017-10-22T12:07:37.828Z,11.10
2017-10-22T12:10:06.516Z,11.00
2017-10-22T12:12:34.384Z,11.00
2017-10-22T12:15:02.251Z,11.00
2017-10-22T12:17:30.118Z,10.90
2017-10-22T12:19:57.883Z,11.00
2017-10-22T12:22:26.572Z,10.90
2017-10-22T12:24:55.259Z,10.90
2017-10-22T12:27:23.785Z,11.00
2017-10-22T12:29:51.813Z,11.00
2017-10-22T12:32:19.685Z,11.10
2017-10-22T12:34:47.754Z,11.10
2017-10-22T12:37:15.638Z,11.00
2017-10-22T12:39:43.603Z,11.00
2017-10-22T12:42:11.459Z,11.00
2017-10-22T12:44:39.225Z,11.00
2017-10-22T12:47:07.093Z,11.00
2017-10-22T12:49:34.847Z,11.00
2017-10-22T12:52:02.624Z,11.00
2017-10-22T12:54:30.494Z,10.90
2017-10-22T12:56:58.358Z,10.90
2017-10-22T12:59:26.218Z,10.90
2017-10-22T13:01:54.003Z,10.90
2017-10-22T13:04:21.782Z,10.90
2017-10-22T13:06:49.506Z,10.90
2017-10-22T13:09:17.392Z,10.90
2017-10-22T13:11:45.265Z,10.90
2017-10-22T13:14:13.040Z,10.90
2017-10-22T13:16:40.806Z,10.80
2017-10-22T13:19:08.658Z,10.90
2017-10-22T13:21:36.628Z,10.80
2017-10-22T13:24:04.704Z,10.80
2017-10-22T13:26:32.607Z,10.80
2017-10-22T13:29:00.437Z,10.80
2017-10-22T13:31:28.203Z,10.80
2017-10-22T13:33:56.785Z,10.80
2017-10-22T13:36:24.655Z,10.80
2017-10-22T13:38:52.421Z,10.80
2017-10-22T13:41:20.290Z,10.80
2017-10-22T13:43:48.978Z,10.80
2017-10-22T13:46:16.793Z,10.80
2017-10-22T13:48:44.608Z,10.80
2017-10-22T13:51:12.353Z,10.70
2017-10-22T13:53:40.141Z,10.80
2017-10-22T13:56:08.010Z,10.70
2017-10-22T13:58:35.762Z,10.70
2017-10-22T14:01:03.641Z,10.70
2017-10-22T14:03:32.331Z,10.70
2017-10-22T14:06:00.300Z,10.70
2017-10-22T14:08:28.067Z,10.80
2017-10-22T14:10:56.033Z,10.70
2017-10-22T14:13:23.783Z,10.80
2017-10-22T14:15:51.621Z,10.80
2017-10-22T14:18:20.251Z,10.80
2017-10-22T14:20:48.122Z,10.80
2017-10-22T14:23:15.880Z,10.80
2017-10-22T14:25:43.661Z,10.80
2017-10-22T14:28:11.826Z,10.80
2017-10-22T14:30:40.237Z,10.80
2017-10-22T14:33:07.958Z,10.80
2017-10-22T14:35:35.565Z,10.90
2017-10-22T14:38:03.298Z,10.90
2017-10-22T14:40:31.075Z,10.90
2017-10-22T14:42:58.930Z,11.00
2017-10-22T14:45:26.594Z,11.00
2017-10-22T14:47:55.281Z,11.00
2017-10-22T14:50:23.097Z,11.00
2017-10-22T14:52:51.024Z,11.00
2017-10-22T14:55:18.886Z,11.00
2017-10-22T14:57:46.569Z,11.10
2017-10-22T15:00:15.672Z,11.00
2017-10-22T15:02:43.393Z,11.00
2017-10-22T15:05:11.120Z,11.00
2017-10-22T15:07:38.946Z,11.00
2017-10-22T15:10:06.799Z,11.00
2017-10-22T15:12:34.678Z,11.00
2017-10-22T15:15:03.203Z,11.00
2017-10-22T15:17:31.029Z,11.00
2017-10-22T15:19:58.769Z,11.00
2017-10-22T15:22:26.377Z,10.90
2017-10-22T15:24:54.321Z,10.90
2017-10-22T15:27:22.196Z,10.90
2017-10-22T15:29:49.963Z,10.90
2017-10-22T15:32:17.624Z,10.90
2017-10-22T15:34:46.108Z,10.80
2017-10-22T15:37:15.348Z,10.80
2017-10-22T15:39:43.988Z,10.80
2017-10-22T15:42:11.960Z,10.70
2017-10-22T15:44:39.716Z,10.70
2017-10-22T15:47:07.447Z,10.70
2017-10-22T15:49:35.973Z,10.60
2017-10-22T15:52:03.724Z,10.60
2017-10-22T15:54:31.500Z,10.60
2017-10-22T15:56:59.288Z,10.60
2017-10-22T15:59:27.237Z,10.60
2017-10-22T16:01:55.003Z,10.60
2017-10-22T16:04:22.816Z,10.60
2017-10-22T16:06:50.842Z,10.60
2017-10-22T16:09:18.621Z,10.60
2017-10-22T16:11:46.464Z,10.50
2017-10-22T16:14:14.307Z,10.50
2017-10-22T16:16:42.989Z,10.50
2017-10-22T16:19:11.619Z,10.50
2017-10-22T16:21:39.482Z,10.50
2017-10-22T16:24:07.358Z,10.50
2017-10-22T16:26:35.203Z,10.50
2017-10-22T16:29:02.985Z,10.50
2017-10-22T16:31:30.870Z,10.40
2017-10-22T16:33:58.732Z,10.50
2017-10-22T16:36:26.484Z,10.50
2017-10-22T16:38:54.965Z,10.50
2017-10-22T16:41:22.833Z,10.50
2017-10-22T16:43:50.578Z,10.50
2017-10-22T16:46:18.469Z,10.50
2017-10-22T16:48:46.441Z,10.50
2017-10-22T16:51:14.226Z,10.50
2017-10-22T16:53:41.949Z,10.50
2017-10-22T16:56:09.739Z,10.50
2017-10-22T16:58:37.707Z,10.40
2017-10-22T17:01:05.574Z,10.40
2017-10-22T17:03:33.441Z,10.40
2017-10-22T17:06:01.204Z,10.40
2017-10-22T17:08:29.603Z,10.40
2017-10-22T17:10:57.555Z,10.40
2017-10-22T17:13:25.423Z,10.50
2017-10-22T17:15:53.188Z,10.50
2017-10-22T17:18:21.055Z,10.50
2017-10-22T17:20:48.824Z,10.50
2017-10-22T17:23:16.552Z,10.50
2017-10-22T17:25:45.069Z,10.50
2017-10-22T17:28:12.838Z,10.50
2017-10-22T17:30:40.549Z,10.50
2017-10-22T17:33:08.995Z,10.50
2017-10-22T17:35:36.834Z,10.50
2017-10-22T17:38:04.560Z,10.50
2017-10-22T17:40:32.480Z,10.50
2017-10-22T17:43:00.363Z,10.50
2017-10-22T17:45:28.113Z,10.50
2017-10-22T17:47:55.933Z,10.60
2017-10-22T17:50:23.953Z,10.60
2017-10-22T17:52:51.732Z,10.60
2017-10-22T17:55:19.606Z,10.60
2017-10-22T17:57:48.268Z,10.60
2017-10-22T18:00:16.164Z,10.60
2017-10-22T18:02:44.113Z,10.60
2017-10-22T18:05:13.416Z,10.60
2017-10-22T18:07:41.282Z,10.60
2017-10-22T18:10:09.158Z,10.60
2017-10-22T18:12:37.032Z,10.60
2017-10-22T18:15:05.813Z,10.50
2017-10-22T18:17:34.366Z,10.50
2017-10-22T18:20:03.043Z,10.50
2017-10-22T18:22:31.678Z,10.40
2017-10-22T18:24:59.449Z,10.50
2017-10-22T18:27:27.398Z,10.40
2017-10-22T18:29:55.374Z,10.30
2017-10-22T18:32:23.285Z,10.30
2017-10-22T18:34:51.929Z,10.10
2017-10-22T18:37:20.916Z,10.20
2017-10-22T18:39:48.897Z,10.10
2017-10-22T18:42:16.658Z,10.10
2017-10-22T18:44:45.310Z,10.20
2017-10-22T18:47:30.104Z,10.10
2017-10-22T18:49:58.077Z,10.10
2017-10-22T18:52:26.044Z,10.20
2017-10-22T18:54:53.966Z,10.10
2017-10-22T18:57:21.786Z,10.10
2017-10-22T18:59:49.651Z,10.10
2017-10-22T19:02:17.517Z,10.10
2017-10-22T19:04:45.341Z,10.10
2017-10-22T19:07:14.072Z,10.10
2017-10-22T19:09:42.044Z,10.10
2017-10-22T19:12:09.917Z,10.00
2017-10-22T19:14:37.676Z,9.90
2017-10-22T19:17:05.542Z,9.90
2017-10-22T19:19:33.411Z,9.80
2017-10-22T19:22:01.176Z,9.70
2017-10-22T19:24:28.946Z,9.70
2017-10-22T19:26:57.524Z,9.60
2017-10-22T19:29:25.905Z,9.60
2017-10-22T19:31:53.581Z,9.60
2017-10-22T19:34:21.363Z,9.50
2017-10-22T19:36:49.107Z,9.40
2017-10-22T19:39:17.584Z,9.50
2017-10-22T19:41:45.559Z,9.50
2017-10-22T19:44:13.528Z,9.50
2017-10-22T19:46:41.189Z,9.50
2017-10-22T19:49:08.897Z,9.50
2017-10-22T19:51:36.739Z,9.40
2017-10-22T19:54:04.689Z,9.40
2017-10-22T19:56:32.558Z,9.40
2017-10-22T19:59:00.429Z,9.40
2017-10-22T20:01:28.189Z,9.40
2017-10-22T20:03:56.056Z,9.50
2017-10-22T20:06:37.597Z,9.50
2017-10-22T20:09:06.128Z,9.60
2017-10-22T20:11:33.892Z,9.60
2017-10-22T20:14:01.658Z,9.50
2017-10-22T20:16:29.628Z,9.50
2017-10-22T20:18:57.495Z,9.50
2017-10-22T20:21:25.373Z,9.40
2017-10-22T20:23:53.233Z,9.40
2017-10-22T20:26:20.996Z,9.40
2017-10-22T20:28:48.967Z,9.30
2017-10-22T20:31:16.845Z,9.20
2017-10-22T20:33:44.809Z,9.20
2017-10-22T20:36:12.775Z,9.10
2017-10-22T20:38:40.543Z,9.10
2017-10-22T20:41:09.072Z,9.00
2017-10-22T20:43:36.801Z,9.00
2017-10-22T20:46:04.640Z,9.00
2017-10-22T20:48:33.250Z,9.00
2017-10-22T20:51:01.214Z,9.10
2017-10-22T20:53:29.175Z,9.10
2017-10-22T20:55:56.967Z,9.10
2017-10-22T20:58:24.691Z,9.10
2017-10-22T21:00:52.580Z,9.10
2017-10-22T21:03:20.499Z,9.00
2017-10-22T21:05:48.417Z,9.00
2017-10-22T21:08:16.084Z,9.00
2017-10-22T21:10:44.779Z,8.90
2017-10-22T21:13:13.548Z,8.90
2017-10-22T21:15:41.515Z,8.90
2017-10-22T21:18:09.353Z,8.90
2017-10-22T21:20:37.918Z,9.00
2017-10-22T21:23:05.746Z,9.00
2017-10-22T21:25:33.615Z,9.10
2017-10-22T21:28:01.324Z,9.20
2017-10-22T21:30:30.066Z,9.40
2017-10-22T21:32:57.939Z,9.40
2017-10-22T21:35:26.009Z,9.50
2017-10-22T21:37:53.772Z,9.50
2017-10-22T21:40:21.538Z,9.50
2017-10-22T21:42:49.407Z,9.60
2017-10-22T21:45:17.000Z,9.60
2017-10-22T21:47:45.514Z,9.60
2017-10-22T21:50:14.041Z,9.60
2017-10-22T21:52:42.010Z,9.50
2017-10-22T21:55:09.751Z,9.60
2017-10-22T21:57:37.359Z,9.60
2017-10-22T22:00:05.198Z,9.60
2017-10-22T22:02:32.963Z,9.70
2017-10-22T22:05:00.831Z,9.80
2017-10-22T22:07:28.700Z,9.70
2017-10-22T22:09:56.670Z,9.70
2017-10-22T22:12:24.435Z,9.80
2017-10-22T22:14:53.021Z,9.70
2017-10-22T22:17:20.890Z,9.70
2017-10-22T22:19:48.661Z,9.70
2017-10-22T22:22:16.503Z,9.70
2017-10-22T22:24:44.284Z,9.70
2017-10-22T22:27:12.123Z,9.80
2017-10-22T22:29:40.031Z,9.80
2017-10-22T22:32:08.098Z,9.80
2017-10-22T22:34:35.864Z,9.70
2017-10-22T22:37:04.404Z,9.70
2017-10-22T22:39:33.030Z,9.70
2017-10-22T22:42:01.000Z,9.70
2017-10-22T22:44:28.866Z,9.70
2017-10-22T22:46:56.634Z,9.70
2017-10-22T22:49:25.322Z,9.80
2017-10-22T22:51:53.860Z,9.70
2017-10-22T22:54:22.385Z,9.80
2017-10-22T22:56:50.017Z,9.80
2017-10-22T22:59:18.581Z,9.80
2017-10-22T23:01:46.410Z,9.80
2017-10-22T23:04:14.580Z,9.80
2017-10-22T23:06:42.441Z,9.80
2017-10-22T23:09:10.206Z,9.70
2017-10-22T23:11:37.981Z,9.70
2017-10-22T23:14:05.942Z,9.70
2017-10-22T23:16:33.719Z,9.60
2017-10-22T23:19:01.381Z,9.70
2017-10-22T23:21:29.244Z,9.70
2017-10-22T23:23:57.007Z,9.60
2017-10-22T23:26:24.666Z,9.70
2017-10-22T23:28:52.450Z,9.60
2017-10-22T23:31:20.407Z,9.70
2017-10-22T23:33:48.257Z,9.70
2017-10-22T23:36:16.035Z,9.70
2017-10-22T23:38:43.972Z,9.70
2017-10-22T23:41:11.789Z,9.70
2017-10-22T23:43:39.537Z,9.70
2017-10-22T23:46:07.315Z,9.70
2017-10-22T23:48:35.282Z,9.60
2017-10-22T23:51:03.245Z,9.70
2017-10-22T23:53:30.997Z,9.70
2017-10-22T23:55:58.961Z,9.70
2017-10-22T23:58:26.754Z,9.70
